createdAt,value
2022-11-30T00:01:31.839Z,19.33
2022-11-30T00:03:59.677Z,19.16
2022-11-30T00:06:27.397Z,19.15
2022-11-30T00:08:56.963Z,19.37
2022-11-30T00:11:27.230Z,19.38
2022-11-30T00:13:55.278Z,19.37
2022-11-30T00:16:23.333Z,19.34
2022-11-30T00:18:52.374Z,19.16
2022-11-30T00:21:20.074Z,19.32
2022-11-30T00:23:48.707Z,19.28
2022-11-30T00:26:19.647Z,19.19
2022-11-30T00:28:47.867Z,19.08
2022-11-30T00:31:17.984Z,19.15
2022-11-30T00:33:46.443Z,19.27
2022-11-30T00:36:17.001Z,19.13
2022-11-30T00:38:45.800Z,19.22
2022-11-30T00:41:14.126Z,19.24
2022-11-30T00:43:42.423Z,19.08
2022-11-30T00:46:11.201Z,19.15
2022-11-30T00:48:40.397Z,19.24
2022-11-30T00:51:09.886Z,19.25
2022-11-30T00:53:38.177Z,18.97
2022-11-30T00:56:07.495Z,18.97
2022-11-30T00:58:35.497Z,19.24
2022-11-30T01:01:03.967Z,18.98
2022-11-30T01:03:31.930Z,19.17
2022-11-30T01:06:08.315Z,18.87
2022-11-30T01:08:36.185Z,18.99
2022-11-30T01:11:12.605Z,18.99
2022-11-30T01:13:40.318Z,19.17
2022-11-30T01:16:15.972Z,19.14
2022-11-30T01:18:44.719Z,19.17
2022-11-30T01:21:16.432Z,19.09
2022-11-30T01:23:44.866Z,19.11
2022-11-30T01:26:13.043Z,19.14
2022-11-30T01:28:46.513Z,18.94
2022-11-30T01:31:14.879Z,19.10
2022-11-30T01:33:43.336Z,18.36
2022-11-30T01:36:16.688Z,18.93
2022-11-30T01:38:47.794Z,18.44
2022-11-30T01:41:21.992Z,18.54
2022-11-30T01:44:15.537Z,19.08
2022-11-30T01:46:57.285Z,18.98
2022-11-30T01:49:34.329Z,19.03
2022-11-30T01:52:04.813Z,18.98
2022-11-30T01:54:41.944Z,18.88
2022-11-30T01:57:20.169Z,18.96
2022-11-30T01:59:51.540Z,18.65
2022-11-30T02:02:24.277Z,19.06
2022-11-30T02:04:52.115Z,18.51
2022-11-30T02:07:20.045Z,18.68
2022-11-30T02:09:48.157Z,18.93
2022-11-30T02:12:30.189Z,18.99
2022-11-30T02:15:05.835Z,18.86
2022-11-30T02:17:48.681Z,18.86
2022-11-30T02:20:37.407Z,18.63
2022-11-30T02:23:20.481Z,18.94
2022-11-30T02:26:05.344Z,18.90
2022-11-30T02:28:57.710Z,18.89
2022-11-30T02:31:39.058Z,18.75
2022-11-30T02:34:09.956Z,18.60
2022-11-30T02:36:38.478Z,18.82
2022-11-30T02:39:07.375Z,18.42
2022-11-30T02:41:38.214Z,18.89
2022-11-30T02:44:09.839Z,18.69
2022-11-30T02:46:51.265Z,18.90
2022-11-30T02:49:31.875Z,18.87
2022-11-30T02:52:01.628Z,18.43
2022-11-30T02:54:29.700Z,18.85
2022-11-30T02:56:58.205Z,18.71
2022-11-30T02:59:26.047Z,18.72
2022-11-30T03:01:53.983Z,18.30
2022-11-30T03:04:21.730Z,18.60
2022-11-30T03:06:49.549Z,18.64
2022-11-30T03:09:17.255Z,18.82
2022-11-30T03:11:44.970Z,18.59
2022-11-30T03:14:13.874Z,18.72
2022-11-30T03:16:41.641Z,18.88
2022-11-30T03:19:09.488Z,18.91
2022-11-30T03:21:37.110Z,18.75
2022-11-30T03:24:04.875Z,18.90
2022-11-30T03:26:33.043Z,18.67
2022-11-30T03:29:00.938Z,18.83
2022-11-30T03:31:28.834Z,18.37
2022-11-30T03:33:56.842Z,18.74
2022-11-30T03:36:25.766Z,18.86
2022-11-30T03:38:53.616Z,18.61
2022-11-30T03:41:21.423Z,18.64
2022-11-30T03:43:49.252Z,18.85
2022-11-30T03:46:17.522Z,18.77
2022-11-30T03:48:45.332Z,18.85
2022-11-30T03:51:13.913Z,18.81
2022-11-30T03:53:42.436Z,18.65
2022-11-30T03:56:11.407Z,18.85
2022-11-30T03:58:39.246Z,18.84
2022-11-30T04:01:10.099Z,18.77
2022-11-30T04:03:38.937Z,18.59
2022-11-30T04:06:08.198Z,18.37
2022-11-30T04:08:36.591Z,18.84
2022-11-30T04:11:06.006Z,18.90
2022-11-30T04:13:35.867Z,18.89
2022-11-30T04:16:04.533Z,18.85
2022-11-30T04:18:33.645Z,18.84
2022-11-30T04:21:02.162Z,18.82
2022-11-30T04:23:32.201Z,18.70
2022-11-30T04:25:59.980Z,18.57
2022-11-30T04:28:27.794Z,18.49
2022-11-30T04:30:55.629Z,18.65
2022-11-30T04:33:23.864Z,18.73
2022-11-30T04:35:58.878Z,18.75
2022-11-30T04:38:27.269Z,18.73
2022-11-30T04:40:55.542Z,18.50
2022-11-30T04:43:23.876Z,18.75
2022-11-30T04:45:52.059Z,18.42
2022-11-30T04:48:20.303Z,18.48
2022-11-30T04:50:48.274Z,18.50
2022-11-30T04:53:17.803Z,18.63
2022-11-30T04:55:45.692Z,18.62
2022-11-30T04:58:13.332Z,18.23
2022-11-30T05:00:41.004Z,18.18
2022-11-30T05:03:08.714Z,18.25
2022-11-30T05:05:36.636Z,18.45
2022-11-30T05:08:04.415Z,18.35
2022-11-30T05:10:34.009Z,18.06
2022-11-30T05:13:01.676Z,18.38
2022-11-30T05:15:29.404Z,18.26
2022-11-30T05:18:01.883Z,18.36
2022-11-30T05:20:29.685Z,18.01
2022-11-30T05:22:57.663Z,18.52
2022-11-30T05:25:25.280Z,18.25
2022-11-30T05:27:53.047Z,18.37
2022-11-30T05:30:20.848Z,18.49
2022-11-30T05:32:48.615Z,18.24
2022-11-30T05:35:16.376Z,18.31
2022-11-30T05:37:44.251Z,18.49
2022-11-30T05:40:12.592Z,18.24
2022-11-30T05:42:40.401Z,18.41
2022-11-30T05:45:08.503Z,18.27
2022-11-30T05:47:36.681Z,18.39
2022-11-30T05:50:05.013Z,18.42
2022-11-30T05:52:32.920Z,18.61
2022-11-30T05:55:00.688Z,18.64
2022-11-30T05:57:28.889Z,18.69
2022-11-30T05:59:56.557Z,18.65
2022-11-30T06:02:28.141Z,18.82
2022-11-30T06:04:56.253Z,18.56
2022-11-30T06:07:24.162Z,18.69
2022-11-30T06:09:52.097Z,18.56
2022-11-30T06:12:19.796Z,18.34
2022-11-30T06:14:47.850Z,18.79
2022-11-30T06:17:15.904Z,18.86
2022-11-30T06:19:43.781Z,18.59
2022-11-30T06:22:11.379Z,18.25
2022-11-30T06:24:39.033Z,18.55
2022-11-30T06:27:06.804Z,18.59
2022-11-30T06:29:34.399Z,18.69
2022-11-30T06:32:02.417Z,18.90
2022-11-30T06:34:33.788Z,18.76
2022-11-30T06:37:01.563Z,18.49
2022-11-30T06:39:57.916Z,18.52
2022-11-30T06:42:17.021Z,18.86
2022-11-30T06:44:44.802Z,18.77
2022-11-30T06:47:12.863Z,18.74
2022-11-30T06:49:40.820Z,18.90
2022-11-30T06:52:08.543Z,18.90
2022-11-30T06:54:36.339Z,18.90
2022-11-30T06:57:04.771Z,18.75
2022-11-30T06:59:32.637Z,18.58
2022-11-30T07:02:05.955Z,18.79
2022-11-30T07:04:36.024Z,18.95
2022-11-30T07:07:03.843Z,18.89
2022-11-30T07:09:33.644Z,18.65
2022-11-30T07:12:02.074Z,18.86
2022-11-30T07:14:31.029Z,18.70
2022-11-30T07:16:59.175Z,18.66
2022-11-30T07:19:27.019Z,18.77
2022-11-30T07:21:54.754Z,18.83
2022-11-30T07:24:42.025Z,18.86
2022-11-30T07:27:10.180Z,18.81
2022-11-30T07:29:37.967Z,18.50
2022-11-30T07:32:06.035Z,18.40
2022-11-30T07:34:35.496Z,18.63
2022-11-30T07:37:03.097Z,18.65
2022-11-30T07:39:33.810Z,18.79
2022-11-30T07:42:02.043Z,18.50
2022-11-30T07:44:29.788Z,18.89
2022-11-30T07:46:57.584Z,18.78
2022-11-30T07:49:25.363Z,18.96
2022-11-30T07:51:53.073Z,18.70
2022-11-30T07:54:20.818Z,18.99
2022-11-30T07:56:48.554Z,18.84
2022-11-30T07:59:16.195Z,18.84
2022-11-30T08:01:44.053Z,18.93
2022-11-30T08:04:14.477Z,18.38
2022-11-30T08:06:42.285Z,19.04
2022-11-30T08:09:17.825Z,18.65
2022-11-30T08:11:48.883Z,18.90
2022-11-30T08:14:16.719Z,19.10
2022-11-30T08:16:44.901Z,19.13
2022-11-30T08:19:12.509Z,18.67
2022-11-30T08:21:40.228Z,18.86
2022-11-30T08:24:13.367Z,19.21
2022-11-30T08:26:41.382Z,19.28
2022-11-30T08:29:11.788Z,19.27
2022-11-30T08:31:39.837Z,19.23
2022-11-30T08:34:11.386Z,19.13
2022-11-30T08:36:40.938Z,19.09
2022-11-30T08:39:11.425Z,19.12
2022-11-30T08:41:39.620Z,19.15
2022-11-30T08:44:07.632Z,19.23
2022-11-30T08:46:50.798Z,19.25
2022-11-30T08:49:22.908Z,19.03
2022-11-30T08:54:45.414Z,19.21
2022-11-30T08:57:16.179Z,19.14
2022-11-30T08:59:44.763Z,19.24
2022-11-30T09:02:17.032Z,19.33
2022-11-30T09:04:45.478Z,19.16
2022-11-30T09:07:13.515Z,18.99
2022-11-30T09:09:41.659Z,19.18
2022-11-30T09:12:09.439Z,19.36
2022-11-30T09:14:37.392Z,18.92
2022-11-30T09:17:05.102Z,19.49
2022-11-30T09:19:32.934Z,19.44
2022-11-30T09:22:00.767Z,19.51
2022-11-30T09:24:28.668Z,19.53
2022-11-30T09:26:59.997Z,19.24
2022-11-30T09:29:28.033Z,19.35
2022-11-30T09:31:56.268Z,19.54
2022-11-30T09:34:24.046Z,18.82
2022-11-30T09:36:52.081Z,19.35
2022-11-30T09:39:20.392Z,19.54
2022-11-30T09:42:14.447Z,19.58
2022-11-30T09:45:02.514Z,19.61
2022-11-30T09:47:57.669Z,19.59
2022-11-30T09:50:30.081Z,19.66
2022-11-30T09:53:02.955Z,19.65
2022-11-30T09:55:36.441Z,19.56
2022-11-30T09:58:06.462Z,19.65
2022-11-30T10:00:35.440Z,19.11
2022-11-30T10:03:06.081Z,19.18
2022-11-30T10:05:52.367Z,19.63
2022-11-30T10:09:21.657Z,19.52
2022-11-30T10:12:01.887Z,19.36
2022-11-30T10:14:37.600Z,19.44
2022-11-30T10:17:21.955Z,19.66
2022-11-30T10:20:28.773Z,19.71
2022-11-30T10:23:36.165Z,19.73
2022-11-30T10:26:12.316Z,19.64
2022-11-30T10:28:54.120Z,19.70
2022-11-30T10:31:33.631Z,19.50
2022-11-30T10:34:20.448Z,19.72
2022-11-30T10:36:55.394Z,19.67
2022-11-30T10:39:30.851Z,19.08
2022-11-30T10:42:14.956Z,19.10
2022-11-30T10:44:47.021Z,19.25
2022-11-30T10:47:22.613Z,19.50
2022-11-30T10:49:51.609Z,19.60
2022-11-30T10:52:26.667Z,19.35
2022-11-30T10:55:02.237Z,19.53
2022-11-30T10:57:32.775Z,19.60
2022-11-30T11:00:05.566Z,19.52
2022-11-30T11:02:39.232Z,19.59
2022-11-30T11:05:28.556Z,19.50
2022-11-30T11:08:06.509Z,19.46
2022-11-30T11:10:44.389Z,19.58
2022-11-30T11:13:20.039Z,19.59
2022-11-30T11:15:59.709Z,19.37
2022-11-30T11:18:32.980Z,19.52
2022-11-30T11:21:08.290Z,19.68
2022-11-30T11:23:41.644Z,19.64
2022-11-30T11:26:22.779Z,19.73
2022-11-30T11:28:52.909Z,19.72
2022-11-30T11:31:42.932Z,19.75
2022-11-30T11:34:26.210Z,19.21
2022-11-30T11:37:19.603Z,19.76
2022-11-30T11:40:08.641Z,19.75
2022-11-30T11:42:43.201Z,19.54
2022-11-30T11:45:36.687Z,19.22
2022-11-30T11:48:12.740Z,19.76
2022-11-30T11:53:51.538Z,19.76
2022-11-30T11:56:27.456Z,19.75
2022-11-30T11:59:21.094Z,19.40
2022-11-30T12:02:16.953Z,19.79
2022-11-30T12:04:48.546Z,19.47
2022-11-30T12:07:34.489Z,19.76
2022-11-30T12:10:52.530Z,19.75
2022-11-30T12:13:38.830Z,19.79
2022-11-30T12:16:15.791Z,19.78
2022-11-30T12:18:56.397Z,19.81
2022-11-30T12:21:42.335Z,19.81
2022-11-30T12:24:45.759Z,19.70
2022-11-30T12:27:28.044Z,19.60
2022-11-30T12:30:11.599Z,19.74
2022-11-30T12:33:05.166Z,19.73
2022-11-30T12:35:57.869Z,19.80
2022-11-30T12:38:37.710Z,19.83
2022-11-30T12:41:14.896Z,19.82
2022-11-30T12:43:51.875Z,19.81
2022-11-30T12:46:40.168Z,19.82
2022-11-30T12:49:13.920Z,19.84
2022-11-30T12:52:08.127Z,19.83
2022-11-30T12:54:44.106Z,19.82
2022-11-30T12:57:19.483Z,19.76
2022-11-30T13:00:09.451Z,19.79
2022-11-30T13:03:10.282Z,19.83
2022-11-30T13:05:51.523Z,19.81
2022-11-30T13:08:26.562Z,19.82
2022-11-30T13:11:04.234Z,19.50
2022-11-30T13:13:36.333Z,19.86
2022-11-30T13:16:08.672Z,19.56
2022-11-30T13:18:37.581Z,19.78
2022-11-30T13:21:26.006Z,19.65
2022-11-30T13:24:10.279Z,19.87
2022-11-30T13:26:46.096Z,19.82
2022-11-30T13:29:18.300Z,19.81
2022-11-30T13:32:33.816Z,19.83
2022-11-30T13:35:30.464Z,19.88
2022-11-30T13:41:08.678Z,19.96
2022-11-30T13:43:48.191Z,19.99
2022-11-30T13:46:20.913Z,19.66
2022-11-30T13:48:49.910Z,19.88
2022-11-30T13:51:39.549Z,20.06
2022-11-30T13:54:39.225Z,20.08
2022-11-30T13:57:30.347Z,20.08
2022-11-30T13:59:59.886Z,20.13
2022-11-30T14:02:33.822Z,20.14
2022-11-30T14:05:16.908Z,20.15
2022-11-30T14:07:48.101Z,20.16
2022-11-30T14:10:32.605Z,19.86
2022-11-30T14:13:09.832Z,20.21
2022-11-30T14:15:37.388Z,20.20
2022-11-30T14:18:08.039Z,20.20
2022-11-30T14:20:42.427Z,20.18
2022-11-30T14:23:23.442Z,20.10
2022-11-30T14:25:54.492Z,20.07
2022-11-30T14:29:08.619Z,20.14
2022-11-30T14:31:54.572Z,19.95
2022-11-30T14:34:29.454Z,19.98
2022-11-30T14:37:02.680Z,19.73
2022-11-30T14:39:43.349Z,19.74
2022-11-30T14:42:24.904Z,19.66
2022-11-30T14:44:54.143Z,19.38
2022-11-30T14:47:31.177Z,19.84
2022-11-30T14:50:02.838Z,19.78
2022-11-30T14:52:55.579Z,19.93
2022-11-30T14:55:32.535Z,19.91
2022-11-30T14:58:19.836Z,19.63
2022-11-30T15:00:48.465Z,19.82
2022-11-30T15:03:21.152Z,19.79
2022-11-30T15:05:52.280Z,19.70
2022-11-30T15:08:20.432Z,19.69
2022-11-30T15:10:48.580Z,19.81
2022-11-30T15:13:19.972Z,19.82
2022-11-30T15:15:55.872Z,19.80
2022-11-30T15:18:25.470Z,19.58
2022-11-30T15:21:11.127Z,19.36
2022-11-30T15:23:39.027Z,19.77
2022-11-30T15:26:17.223Z,19.58
2022-11-30T15:29:00.036Z,19.82
2022-11-30T15:31:36.671Z,19.72
2022-11-30T15:34:07.445Z,19.76
2022-11-30T15:36:38.450Z,19.53
2022-11-30T15:39:17.034Z,19.74
2022-11-30T15:41:45.385Z,19.76
2022-11-30T15:44:44.251Z,19.43
2022-11-30T15:47:37.805Z,19.73
2022-11-30T15:50:30.722Z,19.67
2022-11-30T15:53:20.965Z,19.66
2022-11-30T15:55:53.175Z,19.67
2022-11-30T15:58:26.913Z,19.56
2022-11-30T16:01:05.798Z,19.64
2022-11-30T16:03:35.188Z,19.65
2022-11-30T16:06:07.957Z,19.68
2022-11-30T16:08:35.942Z,19.44
2022-11-30T16:11:08.010Z,19.44
2022-11-30T16:13:36.059Z,19.64
2022-11-30T16:16:12.112Z,19.50
2022-11-30T16:18:40.050Z,19.67
2022-11-30T16:21:13.271Z,19.67
2022-11-30T16:23:40.924Z,19.68
2022-11-30T16:29:05.099Z,19.66
2022-11-30T16:31:32.998Z,19.32
2022-11-30T16:34:00.811Z,19.34
2022-11-30T16:36:30.874Z,19.58
2022-11-30T16:39:00.134Z,19.59
2022-11-30T16:41:28.913Z,19.57
2022-11-30T16:43:58.512Z,19.58
2022-11-30T16:46:28.517Z,19.57
2022-11-30T16:48:58.815Z,19.56
2022-11-30T16:51:29.031Z,19.52
2022-11-30T16:53:57.194Z,19.53
2022-11-30T16:56:25.821Z,19.52
2022-11-30T16:58:54.339Z,19.38
2022-11-30T17:01:36.642Z,19.60
2022-11-30T17:04:15.031Z,19.45
2022-11-30T17:06:45.721Z,19.20
2022-11-30T17:09:16.909Z,19.72
2022-11-30T17:11:46.951Z,19.49
2022-11-30T17:14:14.710Z,19.72
2022-11-30T17:16:44.264Z,19.90
2022-11-30T17:19:14.017Z,19.64
2022-11-30T17:21:43.168Z,19.90
2022-11-30T17:24:11.947Z,19.93
2022-11-30T17:26:39.696Z,19.76
2022-11-30T17:29:07.867Z,19.91
2022-11-30T17:31:35.891Z,19.87
2022-11-30T17:34:03.963Z,19.50
2022-11-30T17:36:31.967Z,19.82
2022-11-30T17:38:59.660Z,19.84
2022-11-30T17:41:28.617Z,19.84
2022-11-30T17:43:57.225Z,19.15
2022-11-30T17:46:25.041Z,19.65
2022-11-30T17:48:53.015Z,19.95
2022-11-30T17:51:20.671Z,19.96
2022-11-30T17:53:48.526Z,20.00
2022-11-30T17:56:17.807Z,19.97
2022-11-30T17:58:46.332Z,19.93
2022-11-30T18:01:23.358Z,20.05
2022-11-30T18:03:52.846Z,20.00
2022-11-30T18:06:21.132Z,19.60
2022-11-30T18:08:48.949Z,19.93
2022-11-30T18:11:22.679Z,19.96
2022-11-30T18:13:53.704Z,19.96
2022-11-30T18:16:24.531Z,19.76
2022-11-30T18:18:53.460Z,19.81
2022-11-30T18:21:23.718Z,19.63
2022-11-30T18:23:53.181Z,19.87
2022-11-30T18:26:22.976Z,19.83
2022-11-30T18:28:55.916Z,19.50
2022-11-30T18:31:24.130Z,19.83
2022-11-30T18:33:59.433Z,19.75
2022-11-30T18:36:27.617Z,19.84
2022-11-30T18:38:55.902Z,19.51
2022-11-30T18:41:26.335Z,19.66
2022-11-30T18:43:54.836Z,19.44
2022-11-30T18:46:22.857Z,19.61
2022-11-30T18:48:52.563Z,19.84
2022-11-30T18:51:26.514Z,19.66
2022-11-30T18:53:57.907Z,19.81
2022-11-30T18:56:28.226Z,19.82
2022-11-30T18:59:02.167Z,19.59
2022-11-30T19:01:30.970Z,19.48
2022-11-30T19:04:01.243Z,19.74
2022-11-30T19:06:32.466Z,19.78
2022-11-30T19:09:03.332Z,19.23
2022-11-30T19:11:34.042Z,19.73
2022-11-30T19:14:03.352Z,19.86
2022-11-30T19:16:34.739Z,19.83
2022-11-30T19:19:07.452Z,19.82
2022-11-30T19:21:35.518Z,19.80
2022-11-30T19:24:04.057Z,19.43
2022-11-30T19:26:31.812Z,19.69
2022-11-30T19:28:59.532Z,19.81
2022-11-30T19:31:27.726Z,19.73
2022-11-30T19:33:55.988Z,19.90
2022-11-30T19:36:29.957Z,19.92
2022-11-30T19:38:59.354Z,19.55
2022-11-30T19:41:28.339Z,19.69
2022-11-30T19:44:02.770Z,19.94
2022-11-30T19:46:32.011Z,19.44
2022-11-30T19:49:01.742Z,19.96
2022-11-30T19:51:31.151Z,19.63
2022-11-30T19:54:02.354Z,19.74
2022-11-30T19:56:32.281Z,19.63
2022-11-30T19:59:05.073Z,20.08
2022-11-30T20:01:34.847Z,20.11
2022-11-30T20:04:03.365Z,19.71
2022-11-30T20:06:34.294Z,20.01
2022-11-30T20:09:03.353Z,20.04
2022-11-30T20:11:31.368Z,19.78
2022-11-30T20:14:00.473Z,20.06
2022-11-30T20:16:28.706Z,19.79
2022-11-30T20:19:01.990Z,19.82
2022-11-30T20:21:35.071Z,19.83
2022-11-30T20:24:06.222Z,19.93
2022-11-30T20:26:43.365Z,19.87
2022-11-30T20:29:17.020Z,20.04
2022-11-30T20:31:48.339Z,20.00
2022-11-30T20:34:17.057Z,19.82
2022-11-30T20:36:45.556Z,19.95
2022-11-30T20:39:13.409Z,19.97
2022-11-30T20:41:41.990Z,19.92
2022-11-30T20:44:15.544Z,20.01
2022-11-30T20:46:43.866Z,20.08
2022-11-30T20:49:18.063Z,19.90
2022-11-30T20:51:47.054Z,19.81
2022-11-30T20:54:16.266Z,20.03
2022-11-30T20:56:44.097Z,20.11
2022-11-30T20:59:17.259Z,19.98
2022-11-30T21:01:47.319Z,19.93
2022-11-30T21:04:15.205Z,20.12
2022-11-30T21:06:45.651Z,19.92
2022-11-30T21:09:18.737Z,20.04
2022-11-30T21:11:47.728Z,20.03
2022-11-30T21:14:17.912Z,19.65
2022-11-30T21:16:46.457Z,19.94
2022-11-30T21:19:16.041Z,19.72
2022-11-30T21:21:43.853Z,19.98
2022-11-30T21:24:12.051Z,19.82
2022-11-30T21:26:42.449Z,19.73
2022-11-30T21:29:16.110Z,19.82
2022-11-30T21:31:44.032Z,19.63
2022-11-30T21:34:12.574Z,19.87
2022-11-30T21:36:41.289Z,19.73
2022-11-30T21:39:10.497Z,19.49
2022-11-30T21:41:39.957Z,19.82
2022-11-30T21:44:12.152Z,19.93
2022-11-30T21:46:40.815Z,19.79
2022-11-30T21:49:10.100Z,19.91
2022-11-30T21:51:38.066Z,19.90
2022-11-30T21:54:08.486Z,19.78
2022-11-30T21:56:38.666Z,19.90
2022-11-30T21:59:09.021Z,19.96
2022-11-30T22:01:39.412Z,19.93
2022-11-30T22:04:09.358Z,19.72
2022-11-30T22:06:39.523Z,19.90
2022-11-30T22:09:12.428Z,19.91
2022-11-30T22:11:42.350Z,19.87
2022-11-30T22:14:18.532Z,19.82
2022-11-30T22:16:46.587Z,19.47
2022-11-30T22:19:16.322Z,19.84
2022-11-30T22:21:49.662Z,19.83
2022-11-30T22:24:17.888Z,19.75
2022-11-30T22:26:47.054Z,19.78
2022-11-30T22:29:24.246Z,19.68
2022-11-30T22:31:54.012Z,19.37
2022-11-30T22:34:22.083Z,19.66
2022-11-30T22:36:49.761Z,19.43
2022-11-30T22:39:20.405Z,19.60
2022-11-30T22:41:55.321Z,19.62
2022-11-30T22:44:25.292Z,19.68
2022-11-30T22:46:53.277Z,19.34
2022-11-30T22:49:22.141Z,19.14
2022-11-30T22:51:51.013Z,19.22
2022-11-30T22:54:19.175Z,19.63
2022-11-30T22:56:47.066Z,19.62
2022-11-30T22:59:15.867Z,19.65
2022-11-30T23:01:47.221Z,19.68
2022-11-30T23:04:18.564Z,19.45
2022-11-30T23:06:48.386Z,19.48
2022-11-30T23:09:22.859Z,19.71
2022-11-30T23:11:51.633Z,19.65
2022-11-30T23:14:19.916Z,19.12
2022-11-30T23:16:47.845Z,19.49
2022-11-30T23:19:16.336Z,19.39
2022-11-30T23:21:47.441Z,19.31
2022-11-30T23:24:23.954Z,19.35
2022-11-30T23:26:51.670Z,19.62
2022-11-30T23:29:19.424Z,19.35
2022-11-30T23:31:47.385Z,19.61
2022-11-30T23:34:21.662Z,19.63
2022-11-30T23:36:50.468Z,19.62
2022-11-30T23:39:20.969Z,19.44
2022-11-30T23:41:48.732Z,19.59
2022-11-30T23:44:17.392Z,19.57
2022-11-30T23:46:45.490Z,19.17
2022-11-30T23:49:17.100Z,19.40
2022-11-30T23:51:45.121Z,19.48
2022-11-30T23:54:12.808Z,19.58
2022-11-30T23:56:41.885Z,19.56
2022-11-30T23:59:09.625Z,19.37
